Wetterstation Vordersexau
Wetterdaten: Woche 07.09.15 - 13.09.15 (KW37)
Datum Zeit Temp. A. Feuchte A. Luftdruck Regen Wind Richtung Taupunkt Windchill Windben
07.09.2015 00:00 10,1 C 75 % 1024,1 hPa 0,0 l/m 0,0 km/h N-NO 5,9 C 10,1 C 0,0 km/h
07.09.2015 01:00 8,5 C 77 % 1024,0 hPa 0,0 l/m 0,0 km/h N-NO 4,7 C 8,5 C 0,0 km/h
07.09.2015 02:00 6,9 C 81 % 1023,8 hPa 0,0 l/m 0,0 km/h O-SO 3,9 C 6,9 C 0,0 km/h
07.09.2015 03:00 5,9 C 83 % 1023,7 hPa 0,0 l/m 0,0 km/h NO 3,2 C 5,9 C 0,0 km/h
07.09.2015 04:00 6,2 C 84 % 1023,7 hPa 0,0 l/m 0,0 km/h O-NO 3,7 C 6,2 C 0,0 km/h
07.09.2015 05:00 5,5 C 84 % 1023,8 hPa 0,0 l/m 0,0 km/h SO 3,0 C 5,5 C 0,0 km/h
07.09.2015 06:00 5,3 C 85 % 1023,7 hPa 0,0 l/m 0,0 km/h O-SO 3,0 C 5,3 C 0,0 km/h
07.09.2015 07:00 5,6 C 85 % 1023,8 hPa 0,0 l/m 0,0 km/h SO 3,3 C 5,6 C 0,0 km/h
07.09.2015 08:00 8,4 C 85 % 1024,4 hPa 0,0 l/m 1,9 km/h SO 6,0 C 8,4 C 1,1 km/h
07.09.2015 09:00 17,1 C 68 % 1024,4 hPa 0,0 l/m 0,0 km/h N-NW 11,1 C 17,1 C 0,0 km/h
07.09.2015 10:00 19,0 C 52 % 1024,1 hPa 0,0 l/m 1,9 km/h S 8,9 C 19,0 C 1,1 km/h
07.09.2015 11:00 19,8 C 52 % 1024,1 hPa 0,0 l/m 3,2 km/h S-SW 9,7 C 19,8 C 1,8 km/h
07.09.2015 12:00 19,3 C 48 % 1023,6 hPa 0,0 l/m 0,0 km/h W-NW 8,0 C 19,3 C 0,0 km/h
07.09.2015 13:00 21,6 C 41 % 1023,5 hPa 0,0 l/m 8,4 km/h N-NO 7,8 C 20,9 C 4,7 km/h
07.09.2015 14:00 23,2 C 39 % 1023,1 hPa 0,0 l/m 15,6 km/h N-NO 8,5 C 21,0 C 8,6 km/h
07.09.2015 15:00 19,8 C 48 % 1023,2 hPa 0,0 l/m 1,3 km/h NO 8,5 C 19,8 C 0,7 km/h
07.09.2015 16:00 20,0 C 50 % 1023,2 hPa 0,0 l/m 0,0 km/h NO 9,3 C 20,0 C 0,0 km/h
07.09.2015 17:00 17,4 C 55 % 1023,2 hPa 0,0 l/m 3,2 km/h N-NO 8,3 C 17,4 C 1,8 km/h
07.09.2015 18:00 16,1 C 61 % 1023,4 hPa 0,0 l/m 0,0 km/h N-NO 8,6 C 16,1 C 0,0 km/h
07.09.2015 19:00 15,2 C 65 % 1023,3 hPa 0,0 l/m 0,0 km/h O-SO 8,7 C 15,2 C 0,0 km/h
07.09.2015 20:00 13,9 C 69 % 1023,7 hPa 0,0 l/m 0,0 km/h O-SO 8,3 C 13,9 C 0,0 km/h
07.09.2015 21:00 13,1 C 73 % 1023,9 hPa 0,0 l/m 0,0 km/h O-SO 8,4 C 13,1 C 0,0 km/h
07.09.2015 22:00 12,9 C 74 % 1023,7 hPa 0,0 l/m 0,0 km/h SO 8,4 C 12,9 C 0,0 km/h
07.09.2015 23:00 12,8 C 75 % 1023,5 hPa 0,0 l/m 0,0 km/h O 8,5 C 12,8 C 0,0 km/h
08.09.2015 00:00 12,8 C 76 % 1023,4 hPa 0,0 l/m 0,0 km/h NO 8,7 C 12,8 C 0,0 km/h
08.09.2015 01:00 12,4 C 78 % 1023,0 hPa 0,0 l/m 0,0 km/h SO 8,7 C 12,4 C 0,0 km/h
08.09.2015 02:00 12,1 C 78 % 1022,3 hPa 0,0 l/m 6,5 km/h O-SO 8,4 C 12,1 C 3,6 km/h
08.09.2015 03:00 9,6 C 80 % 1022,0 hPa 0,0 l/m 0,0 km/h O-SO 6,3 C 9,6 C 0,0 km/h
08.09.2015 04:00 8,3 C 83 % 1021,7 hPa 0,0 l/m 0,0 km/h NO 5,6 C 8,3 C 0,0 km/h
08.09.2015 05:00 7,5 C 84 % 1021,4 hPa 0,0 l/m 0,0 km/h N-NO 5,0 C 7,5 C 0,0 km/h
08.09.2015 06:00 7,2 C 85 % 1021,1 hPa 0,0 l/m 0,0 km/h NO 4,9 C 7,2 C 0,0 km/h
08.09.2015 07:00 7,2 C 85 % 1021,5 hPa 0,0 l/m 0,0 km/h N-NO 4,9 C 7,2 C 0,0 km/h
08.09.2015 08:00 10,4 C 82 % 1021,5 hPa 0,0 l/m 0,0 km/h S 7,5 C 10,4 C 0,0 km/h
08.09.2015 09:00 20,3 C 64 % 1021,5 hPa 0,0 l/m 1,3 km/h SO 13,3 C 20,3 C 0,7 km/h
08.09.2015 10:00 21,9 C 54 % 1021,4 hPa 0,0 l/m 20,1 km/h NW 12,2 C 18,6 C 11,2 km/h
08.09.2015 11:00 22,3 C 46 % 1021,2 hPa 0,0 l/m 3,9 km/h S-SO 10,1 C 22,3 C 2,2 km/h
08.09.2015 12:00 21,6 C 48 % 1020,6 hPa 0,0 l/m 5,2 km/h O 10,1 C 21,6 C 2,9 km/h
08.09.2015 13:00 23,3 C 44 % 1020,1 hPa 0,0 l/m 0,0 km/h O 10,4 C 23,3 C 0,0 km/h
08.09.2015 14:00 23,3 C 41 % 1019,6 hPa 0,0 l/m 0,0 km/h NO 9,3 C 23,3 C 0,0 km/h
08.09.2015 15:00 24,4 C 39 % 1019,3 hPa 0,0 l/m 0,0 km/h O-NO 9,5 C 24,4 C 0,0 km/h
08.09.2015 16:00 27,5 C 34 % 1018,3 hPa 0,0 l/m 0,0 km/h N-NO 10,2 C 27,5 C 0,0 km/h
08.09.2015 17:00 29,3 C 30 % 1017,8 hPa 0,0 l/m 9,7 km/h N-NO 9,9 C 28,9 C 5,4 km/h
08.09.2015 18:00 27,1 C 34 % 1017,7 hPa 0,0 l/m 2,6 km/h O-NO 9,9 C 27,1 C 1,4 km/h
08.09.2015 19:00 20,9 C 42 % 1017,5 hPa 0,0 l/m 0,0 km/h N-NO 7,5 C 20,9 C 0,0 km/h
08.09.2015 20:00 15,9 C 56 % 1018,0 hPa 0,0 l/m 0,0 km/h NO 7,1 C 15,9 C 0,0 km/h
08.09.2015 21:00 14,4 C 59 % 1018,3 hPa 0,0 l/m 0,0 km/h SO 6,5 C 14,4 C 0,0 km/h
08.09.2015 22:00 11,4 C 69 % 1018,5 hPa 0,0 l/m 0,0 km/h S-SO 5,9 C 11,4 C 0,0 km/h
08.09.2015 23:00 10,3 C 73 % 1018,4 hPa 0,0 l/m 0,0 km/h S-SO 5,7 C 10,3 C 0,0 km/h
09.09.2015 00:00 9,1 C 75 % 1018,4 hPa 0,0 l/m 0,0 km/h S-SO 4,9 C 9,1 C 0,0 km/h
09.09.2015 01:00 7,4 C 77 % 1018,3 hPa 0,0 l/m 0,0 km/h S-SO 3,6 C 7,4 C 0,0 km/h
09.09.2015 02:00 6,6 C 79 % 1018,0 hPa 0,0 l/m 0,0 km/h S-SO 3,2 C 6,6 C 0,0 km/h
09.09.2015 03:00 6,1 C 81 % 1017,9 hPa 0,0 l/m 0,0 km/h S-SO 3,1 C 6,1 C 0,0 km/h
09.09.2015 04:00 5,1 C 83 % 1017,6 hPa 0,0 l/m 0,0 km/h S-SO 2,5 C 5,1 C 0,0 km/h
09.09.2015 05:00 4,7 C 83 % 1017,6 hPa 0,0 l/m 0,0 km/h S-SO 2,1 C 4,7 C 0,0 km/h
09.09.2015 06:00 3,6 C 84 % 1017,4 hPa 0,0 l/m 0,0 km/h S-SO 1,2 C 3,6 C 0,0 km/h
09.09.2015 07:00 4,3 C 84 % 1017,8 hPa 0,0 l/m 0,0 km/h W 1,8 C 4,3 C 0,0 km/h
09.09.2015 08:00 8,1 C 84 % 1017,9 hPa 0,0 l/m 0,0 km/h W-NW 5,6 C 8,1 C 0,0 km/h
09.09.2015 09:00 17,1 C 68 % 1017,9 hPa 0,0 l/m 0,0 km/h W-NW 11,1 C 17,1 C 0,0 km/h
09.09.2015 10:00 20,1 C 56 % 1017,7 hPa 0,0 l/m 0,0 km/h S-SW 11,0 C 20,1 C 0,0 km/h
09.09.2015 11:00 22,4 C 50 % 1017,3 hPa 0,0 l/m 7,8 km/h W 11,5 C 21,9 C 4,3 km/h
09.09.2015 12:00 25,4 C 39 % 1016,6 hPa 0,0 l/m 1,9 km/h N-NO 10,4 C 25,4 C 1,1 km/h
09.09.2015 13:00 27,8 C 34 % 1016,3 hPa 0,0 l/m 5,8 km/h N-NO 10,5 C 27,8 C 3,2 km/h
09.09.2015 14:00 27,8 C 33 % 1015,9 hPa 0,0 l/m 20,7 km/h SO 10,0 C 26,2 C 11,5 km/h
09.09.2015 15:00 30,2 C 28 % 1015,5 hPa 0,0 l/m 20,1 km/h N 9,6 C 29,4 C 11,2 km/h
09.09.2015 16:00 28,3 C 29 % 1015,3 hPa 0,0 l/m 1,9 km/h N-NO 8,5 C 28,3 C 1,1 km/h
09.09.2015 17:00 30,1 C 26 % 1015,0 hPa 0,0 l/m 0,0 km/h O-SO 8,5 C 30,1 C 0,0 km/h
09.09.2015 18:00 27,8 C 27 % 1014,9 hPa 0,0 l/m 0,0 km/h N-NO 7,1 C 27,8 C 0,0 km/h
09.09.2015 19:00 21,2 C 36 % 1015,3 hPa 0,0 l/m 0,0 km/h O-NO 5,5 C 21,2 C 0,0 km/h
09.09.2015 20:00 16,8 C 44 % 1015,5 hPa 0,0 l/m 0,0 km/h NO 4,5 C 16,8 C 0,0 km/h
09.09.2015 21:00 12,7 C 58 % 1016,0 hPa 0,0 l/m 2,6 km/h NO 4,7 C 12,7 C 1,4 km/h
09.09.2015 22:00 12,3 C 62 % 1015,9 hPa 0,0 l/m 0,0 km/h O-NO 5,2 C 12,3 C 0,0 km/h
09.09.2015 23:00 9,3 C 69 % 1015,9 hPa 0,0 l/m 0,0 km/h SO 3,9 C 9,3 C 0,0 km/h
10.09.2015 00:00 9,0 C 72 % 1015,9 hPa 0,0 l/m 0,0 km/h O-NO 4,2 C 9,0 C 0,0 km/h
10.09.2015 01:00 7,9 C 77 % 1015,9 hPa 0,0 l/m 0,0 km/h SO 4,1 C 7,9 C 0,0 km/h
10.09.2015 02:00 7,9 C 78 % 1015,9 hPa 0,0 l/m 0,0 km/h SO 4,3 C 7,9 C 0,0 km/h
10.09.2015 03:00 8,1 C 79 % 1015,7 hPa 0,0 l/m 0,0 km/h O-SO 4,7 C 8,1 C 0,0 km/h
10.09.2015 04:00 6,7 C 80 % 1015,6 hPa 0,0 l/m 0,0 km/h SO 3,5 C 6,7 C 0,0 km/h
10.09.2015 05:00 5,6 C 81 % 1015,6 hPa 0,0 l/m 0,0 km/h O-NO 2,6 C 5,6 C 0,0 km/h
10.09.2015 06:00 4,6 C 82 % 1015,7 hPa 0,0 l/m 0,0 km/h O-SO 1,8 C 4,6 C 0,0 km/h
10.09.2015 07:00 4,1 C 83 % 1015,8 hPa 0,0 l/m 0,0 km/h SO 1,5 C 4,1 C 0,0 km/h
10.09.2015 08:00 8,5 C 84 % 1015,9 hPa 0,0 l/m 0,0 km/h W-NW 6,0 C 8,5 C 0,0 km/h
10.09.2015 09:00 18,1 C 63 % 1015,8 hPa 0,0 l/m 1,9 km/h N-NO 10,9 C 18,1 C 1,1 km/h
10.09.2015 10:00 21,4 C 45 % 1015,8 hPa 0,0 l/m 0,6 km/h N 9,0 C 21,4 C 0,4 km/h
10.09.2015 11:00 22,9 C 37 % 1015,1 hPa 0,0 l/m 13,0 km/h NO 7,4 C 21,2 C 7,2 km/h
10.09.2015 12:00 25,3 C 32 % 1014,6 hPa 0,0 l/m 2,6 km/h N-NO 7,4 C 25,3 C 1,4 km/h
10.09.2015 13:00 26,0 C 31 % 1014,2 hPa 0,0 l/m 1,9 km/h NO 7,5 C 26,0 C 1,1 km/h
10.09.2015 14:00 25,6 C 32 % 1013,9 hPa 0,0 l/m 0,0 km/h O-SO 7,7 C 25,6 C 0,0 km/h
10.09.2015 15:00 26,9 C 29 % 1013,2 hPa 0,0 l/m 14,3 km/h O 7,3 C 25,7 C 7,9 km/h
10.09.2015 16:00 29,4 C 26 % 1012,9 hPa 0,0 l/m 0,0 km/h O 7,9 C 29,4 C 0,0 km/h
10.09.2015 17:00 29,3 C 25 % 1013,0 hPa 0,0 l/m 0,0 km/h N-NO 7,2 C 29,3 C 0,0 km/h
10.09.2015 18:00 26,5 C 27 % 1013,1 hPa 0,0 l/m 3,2 km/h SO 6,0 C 26,5 C 1,8 km/h
10.09.2015 19:00 20,1 C 36 % 1013,3 hPa 0,0 l/m 0,0 km/h O-SO 4,6 C 20,1 C 0,0 km/h
10.09.2015 20:00 15,1 C 45 % 1013,8 hPa 0,0 l/m 0,0 km/h O-NO 3,3 C 15,1 C 0,0 km/h
10.09.2015 21:00 12,3 C 57 % 1014,2 hPa 0,0 l/m 0,0 km/h O-SO 4,0 C 12,3 C 0,0 km/h
10.09.2015 22:00 11,3 C 60 % 1014,4 hPa 0,0 l/m 0,0 km/h N-NO 3,8 C 11,3 C 0,0 km/h
10.09.2015 23:00 10,4 C 65 % 1014,3 hPa 0,0 l/m 0,0 km/h NO 4,1 C 10,4 C 0,0 km/h
11.09.2015 00:00 7,3 C 69 % 1014,3 hPa 0,0 l/m 0,0 km/h NO 2,0 C 7,3 C 0,0 km/h
11.09.2015 01:00 6,6 C 75 % 1014,0 hPa 0,0 l/m 0,0 km/h O-SO 2,5 C 6,6 C 0,0 km/h
11.09.2015 02:00 6,9 C 80 % 1013,8 hPa 0,0 l/m 0,0 km/h NO 3,7 C 6,9 C 0,0 km/h
11.09.2015 03:00 6,9 C 82 % 1013,5 hPa 0,0 l/m 0,0 km/h N-NO 4,0 C 6,9 C 0,0 km/h
11.09.2015 04:00 6,1 C 83 % 1014,0 hPa 0,0 l/m 0,0 km/h N-NO 3,4 C 6,1 C 0,0 km/h
11.09.2015 05:00 3,9 C 82 % 1014,1 hPa 0,0 l/m 0,0 km/h N-NO 1,1 C 3,9 C 0,0 km/h
11.09.2015 06:00 4,3 C 84 % 1014,2 hPa 0,0 l/m 0,0 km/h NW 1,8 C 4,3 C 0,0 km/h
11.09.2015 07:00 5,2 C 85 % 1014,6 hPa 0,0 l/m 0,0 km/h O 2,9 C 5,2 C 0,0 km/h
11.09.2015 08:00 8,1 C 85 % 1015,2 hPa 0,0 l/m 0,0 km/h W-NW 5,7 C 8,1 C 0,0 km/h
11.09.2015 09:00 15,8 C 68 % 1015,2 hPa 0,0 l/m 0,0 km/h W 9,9 C 15,8 C 0,0 km/h
11.09.2015 10:00 19,4 C 55 % 1014,9 hPa 0,0 l/m 0,0 km/h W 10,1 C 19,4 C 0,0 km/h
11.09.2015 11:00 21,1 C 46 % 1014,8 hPa 0,0 l/m 7,1 km/h S-SO 9,0 C 20,8 C 4,0 km/h
11.09.2015 12:00 23,4 C 43 % 1014,0 hPa 0,0 l/m 0,0 km/h S-SO 10,1 C 23,4 C 0,0 km/h
11.09.2015 13:00 25,4 C 39 % 1013,9 hPa 0,0 l/m 7,8 km/h N 10,4 C 25,1 C 4,3 km/h
11.09.2015 14:00 26,4 C 36 % 1013,4 hPa 0,0 l/m 5,2 km/h W-NW 10,1 C 26,4 C 2,9 km/h
11.09.2015 15:00 28,1 C 34 % 1012,8 hPa 0,0 l/m 12,3 km/h W 10,7 C 27,3 C 6,8 km/h
11.09.2015 16:00 27,3 C 35 % 1012,8 hPa 0,0 l/m 17,5 km/h N-NO 10,5 C 25,9 C 9,7 km/h
11.09.2015 17:00 23,4 C 41 % 1012,3 hPa 0,0 l/m 0,0 km/h N-NO 9,4 C 23,4 C 0,0 km/h
11.09.2015 18:00 24,9 C 43 % 1012,3 hPa 0,0 l/m 0,0 km/h SO 11,4 C 24,9 C 0,0 km/h
11.09.2015 19:00 21,1 C 50 % 1012,4 hPa 0,0 l/m 0,0 km/h O-NO 10,3 C 21,1 C 0,0 km/h
11.09.2015 20:00 16,2 C 63 % 1013,0 hPa 0,0 l/m 0,0 km/h O-SO 9,1 C 16,2 C 0,0 km/h
11.09.2015 21:00 13,9 C 69 % 1013,6 hPa 0,0 l/m 0,0 km/h O-SO 8,3 C 13,9 C 0,0 km/h
11.09.2015 22:00 13,1 C 73 % 1013,6 hPa 0,0 l/m 0,0 km/h O 8,4 C 13,1 C 0,0 km/h
11.09.2015 23:00 11,8 C 78 % 1013,7 hPa 0,0 l/m 0,0 km/h O-NO 8,1 C 11,8 C 0,0 km/h
12.09.2015 00:00 12,1 C 78 % 1013,9 hPa 0,0 l/m 0,0 km/h O-NO 8,4 C 12,1 C 0,0 km/h
12.09.2015 01:00 12,6 C 78 % 1014,0 hPa 0,0 l/m 0,0 km/h SO 8,9 C 12,6 C 0,0 km/h
12.09.2015 02:00 13,6 C 77 % 1014,1 hPa 0,0 l/m 0,0 km/h SO 9,6 C 13,6 C 0,0 km/h
12.09.2015 03:00 14,1 C 76 % 1013,9 hPa 0,0 l/m 0,0 km/h SO 9,9 C 14,1 C 0,0 km/h
12.09.2015 04:00 14,0 C 77 % 1013,7 hPa 0,0 l/m 0,0 km/h O-SO 10,0 C 14,0 C 0,0 km/h
12.09.2015 05:00 13,9 C 78 % 1013,4 hPa 0,0 l/m 0,0 km/h S-SW 10,1 C 13,9 C 0,0 km/h
12.09.2015 06:00 12,9 C 81 % 1013,5 hPa 0,0 l/m 0,0 km/h N-NO 9,7 C 12,9 C 0,0 km/h
12.09.2015 07:00 12,2 C 83 % 1013,9 hPa 0,0 l/m 0,0 km/h SO 9,4 C 12,2 C 0,0 km/h
12.09.2015 08:00 14,7 C 83 % 1013,5 hPa 0,0 l/m 0,0 km/h O-NO 11,8 C 14,7 C 0,0 km/h
12.09.2015 09:00 24,2 C 60 % 1013,6 hPa 0,0 l/m 0,0 km/h S-SW 15,9 C 24,2 C 0,0 km/h
12.09.2015 10:00 26,6 C 48 % 1013,6 hPa 0,0 l/m 10,4 km/h W-NW 14,7 C 25,9 C 5,8 km/h
12.09.2015 11:00 27,4 C 41 % 1013,5 hPa 0,0 l/m 22,0 km/h S 13,0 C 25,6 C 12,2 km/h
12.09.2015 12:00 25,3 C 46 % 1012,9 hPa 0,0 l/m 10,4 km/h W-SW 12,8 C 24,4 C 5,8 km/h
12.09.2015 13:00 28,3 C 42 % 1012,4 hPa 0,0 l/m 6,5 km/h S-SO 14,1 C 28,3 C 3,6 km/h
12.09.2015 14:00 32,8 C 34 % 1011,5 hPa 0,0 l/m 0,0 km/h W-SW 14,8 C 32,8 C 0,0 km/h
12.09.2015 15:00 32,6 C 33 % 1010,8 hPa 0,0 l/m 0,6 km/h W 14,2 C 32,6 C 0,4 km/h
12.09.2015 16:00 27,8 C 40 % 1010,5 hPa 0,0 l/m 2,6 km/h W-NW 12,9 C 27,8 C 1,4 km/h
12.09.2015 17:00 27,1 C 45 % 1010,6 hPa 0,0 l/m 0,0 km/h W-SW 14,1 C 27,1 C 0,0 km/h
12.09.2015 18:00 24,1 C 51 % 1011,6 hPa 0,0 l/m 15,6 km/h S-SW 13,3 C 22,1 C 8,6 km/h
12.09.2015 19:00 17,1 C 82 % 1013,3 hPa 1,2 l/m 0,6 km/h S-SW 14,0 C 17,1 C 0,4 km/h
12.09.2015 20:00 16,6 C 83 % 1014,1 hPa 0,8 l/m 0,0 km/h SO 13,7 C 16,6 C 0,0 km/h
12.09.2015 21:00 16,0 C 83 % 1013,6 hPa 0,8 l/m 3,2 km/h SO 13,1 C 16,0 C 1,8 km/h
12.09.2015 22:00 15,6 C 84 % 1013,1 hPa 0,0 l/m 0,0 km/h SO 12,9 C 15,6 C 0,0 km/h
12.09.2015 23:00 15,4 C 84 % 1013,7 hPa 0,0 l/m 0,0 km/h O 12,7 C 15,4 C 0,0 km/h
13.09.2015 00:00 15,5 C 83 % 1013,6 hPa 0,0 l/m 0,0 km/h NO 12,6 C 15,5 C 0,0 km/h
13.09.2015 01:00 15,3 C 83 % 1012,7 hPa 0,0 l/m 0,0 km/h S-SO 12,4 C 15,3 C 0,0 km/h
13.09.2015 02:00 14,9 C 83 % 1011,9 hPa 0,0 l/m 0,0 km/h N-NO 12,0 C 14,9 C 0,0 km/h
13.09.2015 03:00 14,9 C 83 % 1011,3 hPa 0,0 l/m 0,0 km/h SO 12,0 C 14,9 C 0,0 km/h
13.09.2015 04:00 14,9 C 83 % 1010,4 hPa 0,0 l/m 0,0 km/h SO 12,0 C 14,9 C 0,0 km/h
13.09.2015 05:00 14,9 C 83 % 1010,6 hPa 0,0 l/m 0,0 km/h S-SO 12,0 C 14,9 C 0,0 km/h
13.09.2015 06:00 14,7 C 83 % 1010,3 hPa 0,0 l/m 0,0 km/h S-SW 11,8 C 14,7 C 0,0 km/h
13.09.2015 07:00 14,9 C 82 % 1010,5 hPa 0,4 l/m 0,0 km/h S-SW 11,9 C 14,9 C 0,0 km/h
13.09.2015 08:00 15,5 C 82 % 1009,6 hPa 0,0 l/m 0,0 km/h O 12,4 C 15,5 C 0,0 km/h
13.09.2015 09:00 16,8 C 82 % 1008,8 hPa 0,0 l/m 0,0 km/h N 13,7 C 16,8 C 0,0 km/h
13.09.2015 10:00 22,3 C 79 % 1008,4 hPa 0,0 l/m 0,0 km/h NW 18,5 C 22,3 C 0,0 km/h
13.09.2015 11:00 20,8 C 77 % 1008,2 hPa 0,0 l/m 0,0 km/h W-NW 16,6 C 20,8 C 0,0 km/h
13.09.2015 12:00 19,5 C 80 % 1008,0 hPa 0,0 l/m 7,8 km/h W-NW 16,0 C 18,9 C 4,3 km/h
13.09.2015 13:00 21,9 C 77 % 1007,7 hPa 0,0 l/m 2,6 km/h W 17,7 C 21,9 C 1,4 km/h
13.09.2015 14:00 23,1 C 69 % 1006,3 hPa 0,0 l/m 1,3 km/h N-NW 17,1 C 23,1 C 0,7 km/h
13.09.2015 15:00 25,2 C 62 % 1005,6 hPa 0,0 l/m 0,0 km/h W-NW 17,4 C 25,2 C 0,0 km/h
13.09.2015 16:00 30,3 C 50 % 1004,8 hPa 0,0 l/m 5,2 km/h S 18,7 C 30,3 C 2,9 km/h
13.09.2015 17:00 33,1 C 44 % 1003,8 hPa 0,0 l/m 0,0 km/h NW 19,2 C 33,1 C 0,0 km/h
13.09.2015 18:00 25,4 C 55 % 1003,4 hPa 0,0 l/m 0,0 km/h NW 15,7 C 25,4 C 0,0 km/h
13.09.2015 19:00 19,0 C 73 % 1002,8 hPa 0,0 l/m 0,0 km/h SO 14,0 C 19,0 C 0,0 km/h
13.09.2015 20:00 17,9 C 81 % 1003,2 hPa 0,0 l/m 0,0 km/h S-SO 14,6 C 17,9 C 0,0 km/h
13.09.2015 21:00 17,8 C 83 % 1003,5 hPa 0,0 l/m 2,6 km/h NW 14,9 C 17,8 C 1,4 km/h
13.09.2015 22:00 16,8 C 83 % 1004,9 hPa 0,4 l/m 0,0 km/h W-SW 13,9 C 16,8 C 0,0 km/h
13.09.2015 23:00 15,8 C 84 % 1006,1 hPa 0,8 l/m 0,0 km/h SO 13,1 C 15,8 C 0,0 km/h
Min-Datum _ 09.09.15 10.09.15 13.09.15 - 07.09.15 - 11.09.15 09.09.15 07.09.15
_ Min-Zeit 06:42 17:42 19:42 - 00:42 - 05:42 06:42 00:42
Minimum _ 3,6 C 25 % 1002,8 hPa - 0,0 km/h - 1,1 C 3,6 C 0,0 km/h
Max-Datum _ 13.09.15 07.09.15 07.09.15 12.09.15 12.09.15 - 13.09.15 13.09.15 12.09.15
_ Max-Zeit 17:42 06:42 08:42 19:42 11:42 - 17:42 17:42 11:42
Maximum _ 33,1 C 85 % 1024,4 hPa 1,2 l/m 22,0 km/h
S
- 19,2 C 33,1 C 12,2 km/h
S
Durchschnitt _ 16,6 C 64 % 1015,7 hPa #4,6 l/m 1,9 km/h N-NO 8,7 C 16,5 C 1,1 km/h
www.sexauwetter.de